Terminal Aerodrome Forecast
Issued by NWS

Home | Current Version | Previous Version | Text Only | Print | Product List | Glossary On
Versions: 1 2 3 4 5 6 7 8 9 10 11 12 13 14 15 16
477
FTUS42 KILM 191120
TAFCRE
TAF
KCRE 191120Z 1912/2012 23005KT P6SM SCT040
     FM191400 20010KT P6SM VCTS SCT025CB BKN045
      TEMPO 1914/1918 3SM TSRA SCT015 BKN025CB
     FM192000 20009KT P6SM SCT040 BKN250
     FM200300 23003KT P6SM SCT250
      TEMPO 2008/2012 3SM BR=

USA.gov is the U.S. government's official web portal to all federal, state and local government web resources and services.